createdAt,value
2019-02-20T00:00:50.444Z,48.18
2019-02-20T00:03:18.639Z,48.20
2019-02-20T00:05:46.714Z,48.21
2019-02-20T00:08:14.808Z,48.22
2019-02-20T00:10:42.853Z,48.26
2019-02-20T00:13:10.910Z,48.32
2019-02-20T00:15:39.322Z,48.41
2019-02-20T00:18:07.656Z,48.44
2019-02-20T00:20:35.991Z,48.45
2019-02-20T00:23:04.304Z,48.44
2019-02-20T00:25:32.364Z,48.45
2019-02-20T00:28:00.718Z,48.43
2019-02-20T00:30:28.794Z,48.44
2019-02-20T00:32:56.873Z,48.45
2019-02-20T00:35:25.197Z,48.46
2019-02-20T00:37:53.557Z,48.47
2019-02-20T00:40:21.755Z,48.50
2019-02-20T00:42:50.277Z,48.52
2019-02-20T00:45:36.559Z,48.56
2019-02-20T00:48:27.220Z,48.60
2019-02-20T00:51:03.660Z,48.64
2019-02-20T00:53:36.553Z,48.68
2019-02-20T00:56:05.806Z,48.73
2019-02-20T00:58:33.943Z,48.79
2019-02-20T01:01:02.017Z,48.81
2019-02-20T01:03:30.335Z,48.85
2019-02-20T01:05:58.388Z,48.87
2019-02-20T01:08:26.512Z,48.93
2019-02-20T01:10:54.608Z,48.97
2019-02-20T01:13:22.670Z,48.97
2019-02-20T01:15:50.753Z,48.98
2019-02-20T01:18:19.109Z,49.00
2019-02-20T01:20:47.141Z,49.01
2019-02-20T01:23:15.315Z,49.03
2019-02-20T01:25:43.357Z,49.09
2019-02-20T01:28:11.486Z,49.13
2019-02-20T01:30:39.534Z,49.18
2019-02-20T01:33:07.611Z,49.23
2019-02-20T01:35:35.657Z,49.29
2019-02-20T01:38:03.736Z,49.34
2019-02-20T01:40:31.821Z,49.40
2019-02-20T01:42:59.888Z,49.47
2019-02-20T01:45:27.962Z,49.55
2019-02-20T01:47:56.046Z,49.60
2019-02-20T01:50:24.182Z,49.68
2019-02-20T01:52:52.259Z,49.75
2019-02-20T01:55:20.323Z,49.82
2019-02-20T01:57:48.372Z,49.87
2019-02-20T02:00:17.143Z,49.94
2019-02-20T02:02:45.212Z,49.98
2019-02-20T02:05:15.763Z,50.02
2019-02-20T02:07:43.326Z,50.06
2019-02-20T02:10:11.400Z,50.07
2019-02-20T02:12:39.500Z,50.12
2019-02-20T02:15:07.654Z,50.17
2019-02-20T02:17:35.883Z,50.21
2019-02-20T02:20:04.160Z,50.23
2019-02-20T02:22:32.209Z,50.26
2019-02-20T02:25:00.290Z,50.29
2019-02-20T02:27:28.352Z,50.31
2019-02-20T02:29:56.423Z,50.34
2019-02-20T02:32:24.480Z,50.38
2019-02-20T02:34:52.579Z,50.42
2019-02-20T02:37:20.913Z,50.46
2019-02-20T02:39:49.237Z,50.49
2019-02-20T02:42:17.270Z,50.52
2019-02-20T02:44:45.317Z,50.52
2019-02-20T02:47:13.347Z,50.54
2019-02-20T02:49:41.416Z,50.57
2019-02-20T02:52:09.459Z,50.60
2019-02-20T02:54:38.679Z,50.62
2019-02-20T02:57:06.680Z,50.64
2019-02-20T02:59:34.719Z,50.65
2019-02-20T03:02:03.203Z,50.66
2019-02-20T03:04:31.278Z,50.68
2019-02-20T03:06:59.638Z,50.68
2019-02-20T03:09:27.745Z,50.70
2019-02-20T03:11:55.757Z,50.70
2019-02-20T03:14:24.388Z,50.69
2019-02-20T03:16:52.607Z,50.69
2019-02-20T03:19:20.652Z,50.72
2019-02-20T03:21:48.747Z,50.72
2019-02-20T03:24:17.872Z,50.73
2019-02-20T03:26:46.270Z,50.72
2019-02-20T03:29:14.353Z,50.70
2019-02-20T03:31:43.479Z,50.67
2019-02-20T03:34:11.736Z,50.65
2019-02-20T03:36:40.892Z,50.62
2019-02-20T03:39:09.061Z,50.59
2019-02-20T03:41:37.086Z,50.56
2019-02-20T03:44:05.523Z,50.58
2019-02-20T03:46:35.187Z,50.57
2019-02-20T03:49:03.362Z,50.53
2019-02-20T03:51:31.740Z,50.52
2019-02-20T03:53:59.791Z,50.55
2019-02-20T03:56:28.946Z,50.60
2019-02-20T03:58:57.380Z,50.62
2019-02-20T04:01:25.436Z,50.64
2019-02-20T04:03:53.506Z,50.66
2019-02-20T04:06:21.611Z,50.67
2019-02-20T04:08:49.655Z,50.67
2019-02-20T04:11:17.682Z,50.67
2019-02-20T04:13:46.023Z,50.67
2019-02-20T04:16:14.537Z,50.67
2019-02-20T04:18:43.389Z,50.68
2019-02-20T04:21:11.470Z,50.70
2019-02-20T04:23:39.560Z,50.71
2019-02-20T04:26:09.836Z,50.71
2019-02-20T04:28:37.717Z,50.74
2019-02-20T04:31:06.350Z,50.75
2019-02-20T04:33:34.457Z,50.74
2019-02-20T04:36:02.460Z,50.76
2019-02-20T04:38:30.551Z,50.78
2019-02-20T04:40:58.645Z,50.81
2019-02-20T04:43:27.245Z,50.82
2019-02-20T04:45:55.403Z,50.82
2019-02-20T04:48:23.545Z,50.83
2019-02-20T04:50:51.846Z,50.89
2019-02-20T04:53:19.961Z,50.92
2019-02-20T04:55:47.983Z,50.92
2019-02-20T04:58:20.785Z,50.97
2019-02-20T05:00:48.861Z,51.01
2019-02-20T05:03:16.951Z,51.05
2019-02-20T05:05:45.384Z,51.11
2019-02-20T05:08:13.431Z,51.13
2019-02-20T05:10:41.548Z,51.12
2019-02-20T05:13:09.579Z,51.11
2019-02-20T05:15:37.599Z,51.13
2019-02-20T05:18:05.941Z,51.14
2019-02-20T05:20:34.043Z,51.15
2019-02-20T05:23:02.066Z,51.16
2019-02-20T05:25:30.123Z,51.13
2019-02-20T05:27:58.154Z,51.11
2019-02-20T05:30:26.866Z,51.15
2019-02-20T05:32:54.953Z,51.16
2019-02-20T05:35:23.263Z,51.12
2019-02-20T05:37:51.323Z,51.10
2019-02-20T05:40:19.342Z,51.10
2019-02-20T05:42:48.330Z,51.12
2019-02-20T05:45:16.512Z,51.18
2019-02-20T05:47:44.840Z,51.25
2019-02-20T05:50:12.905Z,51.25
2019-02-20T05:52:40.983Z,51.28
2019-02-20T05:55:09.021Z,51.33
2019-02-20T05:57:37.078Z,51.33
2019-02-20T06:00:05.851Z,51.35
2019-02-20T06:02:33.915Z,51.32
2019-02-20T06:05:02.029Z,51.31
2019-02-20T06:07:30.339Z,51.34
2019-02-20T06:09:58.702Z,51.38
2019-02-20T06:12:26.767Z,51.39
2019-02-20T06:14:54.807Z,51.40
2019-02-20T06:17:22.841Z,51.42
2019-02-20T06:19:50.864Z,51.45
2019-02-20T06:22:18.958Z,51.46
2019-02-20T06:24:46.999Z,51.50
2019-02-20T06:27:15.290Z,51.54
2019-02-20T06:29:43.380Z,51.55
2019-02-20T06:32:11.446Z,51.61
2019-02-20T06:34:39.993Z,51.63
2019-02-20T06:37:08.377Z,51.64
2019-02-20T06:39:36.503Z,51.65
2019-02-20T06:42:04.577Z,51.70
2019-02-20T06:44:33.003Z,51.67
2019-02-20T06:47:01.101Z,51.64
2019-02-20T06:49:29.501Z,51.62
2019-02-20T06:51:57.648Z,51.55
2019-02-20T06:54:26.257Z,51.52
2019-02-20T06:56:54.319Z,51.52
2019-02-20T06:59:22.392Z,51.49
2019-02-20T07:01:51.584Z,51.48
2019-02-20T07:04:19.922Z,51.44
2019-02-20T07:07:19.751Z,51.42
2019-02-20T07:10:35.455Z,51.43
2019-02-20T07:13:29.507Z,51.39
2019-02-20T07:16:51.483Z,51.38
2019-02-20T07:20:04.674Z,51.39
2019-02-20T07:23:17.139Z,51.39
2019-02-20T07:26:34.224Z,51.41
2019-02-20T07:30:03.341Z,51.47
2019-02-20T07:32:33.591Z,51.51
2019-02-20T07:35:01.640Z,51.58
2019-02-20T07:37:29.677Z,51.67
2019-02-20T07:39:57.709Z,51.67
2019-02-20T07:42:26.380Z,51.65
2019-02-20T07:44:54.463Z,51.59
2019-02-20T07:47:22.490Z,51.54
2019-02-20T07:49:50.943Z,51.42
2019-02-20T07:52:20.028Z,51.39
2019-02-20T07:54:48.108Z,51.37
2019-02-20T07:57:16.452Z,51.33
2019-02-20T07:59:44.497Z,51.29
2019-02-20T08:02:12.623Z,51.27
2019-02-20T08:04:42.147Z,51.28
2019-02-20T08:07:10.320Z,51.31
2019-02-20T08:09:38.549Z,51.28
2019-02-20T08:12:06.993Z,51.26
2019-02-20T08:14:35.456Z,51.14
2019-02-20T08:17:03.712Z,50.98
2019-02-20T08:19:32.897Z,50.87
2019-02-20T08:22:01.001Z,50.71
2019-02-20T08:24:29.060Z,50.55
2019-02-20T08:26:57.500Z,50.38
2019-02-20T08:29:25.591Z,50.26
2019-02-20T08:31:54.059Z,50.16
2019-02-20T08:34:22.175Z,50.05
2019-02-20T08:36:50.321Z,49.93
2019-02-20T08:39:18.376Z,49.79
2019-02-20T08:41:46.412Z,49.66
2019-02-20T08:44:14.601Z,49.51
2019-02-20T08:46:42.630Z,49.29
2019-02-20T08:49:10.546Z,49.05
2019-02-20T08:51:38.683Z,48.75
2019-02-20T08:54:06.690Z,48.35
2019-02-20T08:56:34.707Z,48.03
2019-02-20T08:59:02.759Z,47.66
2019-02-20T09:01:30.829Z,47.37
2019-02-20T09:03:58.969Z,47.09
2019-02-20T09:06:27.001Z,46.77
2019-02-20T09:08:55.141Z,46.48
2019-02-20T09:11:23.187Z,46.25
2019-02-20T09:13:51.494Z,45.96
2019-02-20T09:16:20.941Z,45.78
2019-02-20T09:18:49.135Z,45.57
2019-02-20T09:21:17.238Z,45.33
2019-02-20T09:23:45.565Z,45.04
2019-02-20T09:26:13.572Z,44.77
2019-02-20T09:28:41.714Z,44.57
2019-02-20T09:31:09.844Z,44.32
2019-02-20T09:33:37.878Z,44.12
2019-02-20T09:36:05.944Z,43.97
2019-02-20T09:38:33.932Z,43.72
2019-02-20T09:41:01.967Z,43.43
2019-02-20T09:43:30.132Z,43.07
2019-02-20T09:45:58.195Z,42.69
2019-02-20T09:48:26.498Z,42.32
2019-02-20T09:50:54.801Z,42.11
2019-02-20T09:53:22.811Z,41.90
2019-02-20T09:55:51.828Z,41.63
2019-02-20T09:58:20.802Z,41.39
2019-02-20T10:00:49.199Z,41.00
2019-02-20T10:03:17.280Z,40.80
2019-02-20T10:05:46.489Z,40.77
2019-02-20T10:08:14.526Z,40.78
2019-02-20T10:10:42.604Z,40.81
2019-02-20T10:13:11.593Z,40.88
2019-02-20T10:15:39.664Z,40.98
2019-02-20T10:18:07.773Z,41.03
2019-02-20T10:20:37.114Z,41.00
2019-02-20T10:23:05.145Z,41.01
2019-02-20T10:25:33.226Z,41.09
2019-02-20T10:28:01.480Z,41.16
2019-02-20T10:30:29.821Z,41.20
2019-02-20T10:32:57.867Z,41.28
2019-02-20T10:35:25.915Z,41.44
2019-02-20T10:37:53.952Z,41.71
2019-02-20T10:40:22.054Z,41.99
2019-02-20T10:42:50.121Z,42.10
2019-02-20T10:45:18.152Z,42.15
2019-02-20T10:47:46.161Z,42.18
2019-02-20T10:50:14.673Z,42.24
2019-02-20T10:52:43.127Z,42.36
2019-02-20T10:55:11.491Z,42.31
2019-02-20T10:57:40.534Z,42.29
2019-02-20T11:00:23.527Z,42.33
2019-02-20T11:02:47.551Z,42.38
2019-02-20T11:05:15.699Z,42.38
2019-02-20T11:07:43.903Z,42.42
2019-02-20T11:10:11.968Z,42.36
2019-02-20T11:12:40.381Z,42.25
2019-02-20T11:15:08.632Z,42.10
2019-02-20T11:17:37.506Z,42.06
2019-02-20T11:20:06.207Z,42.01
2019-02-20T11:22:34.234Z,42.01
2019-02-20T11:25:02.264Z,42.06
2019-02-20T11:27:30.475Z,42.13
2019-02-20T11:29:58.650Z,42.25
2019-02-20T11:32:26.690Z,42.24
2019-02-20T11:34:54.741Z,42.11
2019-02-20T11:37:23.070Z,42.00
2019-02-20T11:39:53.991Z,41.91
2019-02-20T11:42:22.342Z,41.90
2019-02-20T11:44:50.648Z,41.89
2019-02-20T11:47:18.846Z,41.91
2019-02-20T11:49:46.888Z,41.89
2019-02-20T11:52:14.988Z,41.87
2019-02-20T11:54:43.349Z,41.71
2019-02-20T11:57:11.681Z,41.49
2019-02-20T11:59:39.699Z,41.22
2019-02-20T12:02:07.753Z,41.09
2019-02-20T12:04:36.164Z,41.03
2019-02-20T12:07:04.215Z,40.90
2019-02-20T12:09:32.552Z,40.73
2019-02-20T12:12:01.130Z,40.44
2019-02-20T12:14:29.188Z,40.07
2019-02-20T12:16:57.214Z,39.77
2019-02-20T12:19:25.701Z,39.57
2019-02-20T12:21:59.786Z,39.39
2019-02-20T12:24:27.806Z,39.15
2019-02-20T12:26:55.847Z,39.01
2019-02-20T12:29:23.885Z,38.90
2019-02-20T12:31:52.881Z,38.69
2019-02-20T12:34:21.433Z,38.61
2019-02-20T12:36:49.525Z,38.58
2019-02-20T12:39:18.574Z,38.56
2019-02-20T12:41:46.904Z,38.49
2019-02-20T12:44:14.975Z,38.40
2019-02-20T12:46:43.320Z,38.34
2019-02-20T12:49:11.527Z,38.20
2019-02-20T12:51:39.642Z,38.13
2019-02-20T12:54:07.741Z,38.05
2019-02-20T12:56:43.484Z,37.72
2019-02-20T12:59:07.824Z,37.28
2019-02-20T13:01:35.682Z,37.05
2019-02-20T13:04:03.863Z,36.94
2019-02-20T13:06:32.191Z,36.77
2019-02-20T13:09:00.209Z,36.58
2019-02-20T13:11:28.631Z,36.45
2019-02-20T13:13:57.140Z,36.25
2019-02-20T13:16:25.180Z,36.10
2019-02-20T13:18:53.942Z,35.99
2019-02-20T13:21:21.988Z,35.86
2019-02-20T13:23:50.363Z,35.83
2019-02-20T13:26:18.709Z,35.84
2019-02-20T13:28:46.732Z,35.85
2019-02-20T13:31:14.675Z,35.79
2019-02-20T13:33:42.962Z,35.68
2019-02-20T13:36:11.011Z,35.63
2019-02-20T13:38:39.046Z,35.76
2019-02-20T13:41:07.478Z,35.76
2019-02-20T13:43:35.486Z,35.72
2019-02-20T13:46:03.617Z,35.60
2019-02-20T13:48:31.632Z,35.45
2019-02-20T13:50:59.745Z,35.72
2019-02-20T13:53:27.741Z,35.90
2019-02-20T13:55:55.776Z,36.13
2019-02-20T13:58:24.109Z,36.19
2019-02-20T14:00:52.138Z,36.31
2019-02-20T14:03:20.168Z,36.31
2019-02-20T14:05:48.223Z,36.22
2019-02-20T14:08:16.298Z,36.15
2019-02-20T14:10:44.418Z,36.09
2019-02-20T14:13:12.420Z,36.24
2019-02-20T14:15:40.762Z,36.10
2019-02-20T14:18:08.870Z,35.93
2019-02-20T14:20:36.899Z,35.71
2019-02-20T14:23:06.911Z,35.60
2019-02-20T14:25:36.402Z,35.58
2019-02-20T14:28:04.757Z,35.46
2019-02-20T14:31:25.017Z,35.44
2019-02-20T14:34:02.025Z,35.35
2019-02-20T14:36:30.431Z,35.14
2019-02-20T14:38:58.801Z,34.91
2019-02-20T14:41:27.160Z,34.89
2019-02-20T14:43:55.236Z,34.84
2019-02-20T14:46:24.148Z,34.69
2019-02-20T14:48:52.193Z,34.47
2019-02-20T14:51:20.286Z,34.34
2019-02-20T14:53:48.508Z,34.12
2019-02-20T14:56:17.163Z,33.96
2019-02-20T14:58:45.902Z,33.86
2019-02-20T15:01:23.092Z,33.84
2019-02-20T15:03:51.485Z,33.83
2019-02-20T15:06:19.805Z,33.84
2019-02-20T15:08:49.189Z,33.81
2019-02-20T15:11:18.672Z,33.70
2019-02-20T15:13:55.424Z,33.62
2019-02-20T15:16:25.731Z,33.52
2019-02-20T15:18:56.220Z,33.57
2019-02-20T15:21:25.250Z,33.63
2019-02-20T15:24:00.938Z,33.67
2019-02-20T15:26:29.984Z,33.65
2019-02-20T15:28:58.571Z,33.67
2019-02-20T15:31:33.749Z,33.67
2019-02-20T15:33:58.182Z,33.67
2019-02-20T15:36:29.057Z,33.67
2019-02-20T15:39:04.554Z,33.64
2019-02-20T15:41:34.718Z,33.60
2019-02-20T15:44:02.866Z,33.55
2019-02-20T15:46:31.190Z,33.53
2019-02-20T15:48:59.290Z,33.53
2019-02-20T15:51:27.394Z,33.59
2019-02-20T15:53:55.743Z,33.63
2019-02-20T15:56:24.567Z,33.74
2019-02-20T15:58:52.732Z,33.75
2019-02-20T16:01:20.772Z,33.80
2019-02-20T16:03:48.921Z,33.97
2019-02-20T16:06:17.006Z,34.21
2019-02-20T16:08:45.110Z,34.46
2019-02-20T16:11:13.245Z,34.65
2019-02-20T16:13:41.425Z,34.84
2019-02-20T16:16:09.435Z,34.99
2019-02-20T16:18:37.845Z,35.11
2019-02-20T16:21:06.081Z,35.27
2019-02-20T16:23:34.180Z,35.39
2019-02-20T16:26:02.632Z,35.49
2019-02-20T16:28:33.873Z,35.63
2019-02-20T16:31:00.981Z,35.73
2019-02-20T16:33:29.290Z,35.92
2019-02-20T16:35:57.544Z,36.07
2019-02-20T16:38:26.051Z,36.20
2019-02-20T16:40:54.153Z,36.35
2019-02-20T16:43:22.307Z,36.45
2019-02-20T16:45:50.417Z,36.53
2019-02-20T16:48:18.528Z,36.59
2019-02-20T16:50:46.623Z,36.63
2019-02-20T16:53:14.660Z,36.66
2019-02-20T16:55:43.882Z,36.70
2019-02-20T16:58:12.196Z,36.70
2019-02-20T17:00:40.608Z,36.74
2019-02-20T17:03:09.057Z,36.79
2019-02-20T17:05:37.407Z,36.83
2019-02-20T17:08:05.523Z,36.92
2019-02-20T17:10:33.906Z,37.01
2019-02-20T17:13:03.390Z,37.09
2019-02-20T17:15:32.155Z,37.17
2019-02-20T17:18:00.660Z,37.27
2019-02-20T17:20:28.759Z,37.40
2019-02-20T17:22:56.866Z,37.53
2019-02-20T17:25:25.624Z,37.61
2019-02-20T17:27:53.656Z,37.73
2019-02-20T17:30:21.823Z,37.83
2019-02-20T17:32:51.060Z,37.92
2019-02-20T17:35:19.448Z,38.03
2019-02-20T17:37:47.465Z,38.12
2019-02-20T17:40:15.788Z,38.24
2019-02-20T17:42:44.622Z,38.43
2019-02-20T17:45:13.853Z,38.59
2019-02-20T17:47:42.874Z,38.76
2019-02-20T17:50:13.322Z,38.86
2019-02-20T17:52:41.382Z,38.95
2019-02-20T17:55:09.847Z,39.04
2019-02-20T17:57:37.994Z,39.13
2019-02-20T18:00:09.288Z,39.21
2019-02-20T18:02:39.044Z,39.25
2019-02-20T18:05:07.135Z,39.32
2019-02-20T18:07:35.555Z,39.38
2019-02-20T18:10:04.337Z,39.44
2019-02-20T18:12:32.801Z,39.53
2019-02-20T18:15:01.453Z,39.70
2019-02-20T18:17:29.845Z,39.81
2019-02-20T18:19:58.037Z,39.88
2019-02-20T18:22:26.118Z,39.94
2019-02-20T18:24:54.207Z,39.99
2019-02-20T18:27:22.226Z,40.06
2019-02-20T18:29:50.413Z,40.11
2019-02-20T18:32:18.480Z,40.20
2019-02-20T18:34:46.646Z,40.33
2019-02-20T18:37:14.868Z,40.43
2019-02-20T18:39:43.019Z,40.54
2019-02-20T18:42:11.209Z,40.65
2019-02-20T18:44:39.309Z,40.74
2019-02-20T18:47:07.721Z,40.82
2019-02-20T18:49:36.264Z,40.85
2019-02-20T18:52:04.303Z,40.92
2019-02-20T18:54:32.386Z,41.00
2019-02-20T18:57:00.555Z,41.05
2019-02-20T18:59:28.623Z,41.14
2019-02-20T19:01:56.667Z,41.25
2019-02-20T19:04:25.582Z,41.35
2019-02-20T19:06:53.769Z,41.47
2019-02-20T19:09:28.209Z,41.55
2019-02-20T19:13:04.680Z,41.66
2019-02-20T19:16:13.480Z,41.71
2019-02-20T19:19:32.990Z,41.75
2019-02-20T19:22:46.345Z,41.86
2019-02-20T19:26:20.414Z,41.96
2019-02-20T19:29:48.892Z,42.07
2019-02-20T19:32:46.436Z,42.15
2019-02-20T19:36:30.450Z,42.22
2019-02-20T19:39:39.311Z,42.33
2019-02-20T19:42:54.266Z,42.38
2019-02-20T19:46:41.706Z,42.46
2019-02-20T19:50:17.927Z,42.53
2019-02-20T19:53:28.615Z,42.64
2019-02-20T19:57:13.945Z,42.74
2019-02-20T20:00:36.154Z,42.85
2019-02-20T20:04:19.144Z,42.91
2019-02-20T20:07:49.030Z,43.00
2019-02-20T20:11:01.460Z,43.09
2019-02-20T20:13:58.827Z,43.16
2019-02-20T20:17:26.598Z,43.21
2019-02-20T20:21:05.770Z,43.28
2019-02-20T20:24:36.911Z,43.36
2019-02-20T20:28:25.217Z,43.37
2019-02-20T20:31:41.316Z,43.44
2019-02-20T20:34:57.771Z,43.46
2019-02-20T20:37:52.692Z,43.57
2019-02-20T20:41:33.650Z,43.64
2019-02-20T20:44:33.024Z,43.70
2019-02-20T20:47:52.230Z,43.74
2019-02-20T20:51:20.391Z,43.82
2019-02-20T20:54:52.586Z,43.87
2019-02-20T20:58:39.977Z,43.95
2019-02-20T21:01:55.088Z,44.08
2019-02-20T21:05:28.834Z,44.11
2019-02-20T21:08:55.003Z,44.21
2019-02-20T21:12:35.016Z,44.25
2019-02-20T21:15:54.273Z,44.32
2019-02-20T21:19:21.471Z,44.37
2019-02-20T21:22:37.293Z,44.45
2019-02-20T21:26:24.399Z,44.54
2019-02-20T21:29:33.610Z,44.58
2019-02-20T21:33:08.221Z,44.64
2019-02-20T21:36:34.202Z,44.68
2019-02-20T21:39:26.415Z,44.72
2019-02-20T21:42:36.013Z,44.74
2019-02-20T21:45:56.522Z,44.84
2019-02-20T21:49:02.843Z,44.91
2019-02-20T21:52:33.173Z,44.99
2019-02-20T21:55:49.031Z,45.03
2019-02-20T21:58:58.126Z,45.07
2019-02-20T22:02:13.730Z,45.14
2019-02-20T22:05:45.904Z,45.20
2019-02-20T22:09:12.113Z,45.28
2019-02-20T22:12:36.601Z,45.30
2019-02-20T22:15:50.501Z,45.37
2019-02-20T22:19:40.565Z,45.39
2019-02-20T22:22:52.760Z,45.43
2019-02-20T22:26:23.309Z,45.49
2019-02-20T22:29:50.196Z,45.56
2019-02-20T22:33:24.398Z,45.63
2019-02-20T22:36:19.398Z,45.69
2019-02-20T22:39:38.375Z,45.74
2019-02-20T22:42:55.923Z,45.78
2019-02-20T22:46:12.759Z,45.80
2019-02-20T22:49:20.033Z,45.86
2019-02-20T22:52:22.539Z,45.91
2019-02-20T22:55:55.904Z,45.99
2019-02-20T22:59:00.851Z,46.06
2019-02-20T23:02:41.603Z,46.11
2019-02-20T23:06:14.992Z,46.16
2019-02-20T23:09:30.179Z,46.14
2019-02-20T23:12:30.936Z,46.20
2019-02-20T23:14:59.132Z,46.26
2019-02-20T23:17:27.454Z,46.30
2019-02-20T23:19:55.615Z,46.37
2019-02-20T23:22:23.848Z,46.42
2019-02-20T23:24:51.921Z,46.47
2019-02-20T23:27:19.980Z,46.53
2019-02-20T23:29:48.130Z,46.56
2019-02-20T23:32:17.258Z,46.60
2019-02-20T23:34:45.294Z,46.64
2019-02-20T23:37:13.335Z,46.67
2019-02-20T23:39:41.396Z,46.70
2019-02-20T23:42:09.445Z,46.73
2019-02-20T23:44:37.495Z,46.76
2019-02-20T23:47:05.569Z,46.82
2019-02-20T23:49:33.639Z,46.89
2019-02-20T23:52:02.058Z,46.94
2019-02-20T23:54:30.196Z,46.93
2019-02-20T23:56:58.238Z,46.96
2019-02-20T23:59:26.309Z,47.00
